Time;durP1;ratioP1;P1;durP2;ratioP2;P2;SDS_P1;SDS_P2;PMS_P1;PMS_P2;Temp;Humidity;BMP_temperature;BMP_pressure;BME280_temperature;BME280_humidity;BME280_pressure;Samples;Min_cycle;Max_cycle;Signal;HPM_P1;HPM_P2
2023/08/03 00:00:22;;;;;;;4.78;1.67;;;;;;;26.23;58.19;96986.84;4425997;32;20085;-77
2023/08/03 00:02:49;;;;;;;4.35;1.60;;;;;;;25.23;61.08;96979.62;4426473;32;20542;-77
2023/08/03 00:05:17;;;;;;;3.30;1.65;;;;;;;25.58;59.97;96985.13;4426496;32;20112;-77
2023/08/03 00:07:44;;;;;;;4.12;1.67;;;;;;;26.09;57.93;96977.97;4426111;32;20089;-78
2023/08/03 00:10:11;;;;;;;4.15;1.67;;;;;;;26.14;56.98;96986.16;4426340;32;20104;-77
2023/08/03 00:12:38;;;;;;;4.30;1.67;;;;;;;25.89;56.73;96984.88;4426079;32;20104;-77
2023/08/03 00:15:06;;;;;;;5.62;1.70;;;;;;;25.25;58.70;96977.63;4426225;32;20112;-77
2023/08/03 00:17:33;;;;;;;5.93;1.80;;;;;;;25.49;58.77;96973.84;4426437;32;20085;-77
2023/08/03 00:20:01;;;;;;;4.62;1.67;;;;;;;25.58;58.72;96983.28;4425921;32;20112;-77
2023/08/03 00:22:28;;;;;;;4.55;1.67;;;;;;;25.83;57.84;96978.50;4426277;32;20141;-77
2023/08/03 00:24:55;;;;;;;4.53;1.90;;;;;;;25.43;58.97;96974.59;4426317;32;20112;-77
2023/08/03 00:27:22;;;;;;;3.58;1.67;;;;;;;24.12;64.04;96977.66;4425893;32;20086;-77
2023/08/03 00:29:49;;;;;;;4.35;1.60;;;;;;;25.63;58.54;96975.66;4426035;32;20086;-77
2023/08/03 00:32:15;;;;;;;3.53;1.65;;;;;;;25.05;59.92;96980.00;4426335;32;20391;-77
2023/08/03 00:34:42;;;;;;;5.47;1.87;;;;;;;23.95;67.07;96978.78;4426001;32;20360;-77
2023/08/03 00:37:13;;;;;;;4.25;1.80;;;;;;;24.91;62.88;96972.88;4426177;32;20121;-77
2023/08/03 00:39:40;;;;;;;4.25;1.70;;;;;;;25.24;61.50;96973.34;4426122;32;20121;-77
2023/08/03 00:42:07;;;;;;;6.12;1.77;;;;;;;25.75;59.80;96978.66;4425865;32;20087;-77
2023/08/03 00:44:34;;;;;;;5.25;2.03;;;;;;;25.02;62.98;96985.63;4426139;32;20163;-77
2023/08/03 00:47:01;;;;;;;5.55;2.12;;;;;;;25.19;63.11;96980.16;4412330;32;20118;-77
2023/08/03 00:49:28;;;;;;;3.85;1.80;;;;;;;25.22;63.27;96969.25;4425742;32;20105;-77
2023/08/03 00:51:58;;;;;;;5.87;2.00;;;;;;;25.55;61.91;96965.19;4425711;32;20104;-77
2023/08/03 00:54:25;;;;;;;6.28;2.10;;;;;;;25.55;62.42;96967.84;4426174;32;20117;-77
2023/08/03 00:56:53;;;;;;;5.87;2.15;;;;;;;25.30;62.43;96969.94;4425619;32;20151;-77
2023/08/03 00:59:20;;;;;;;4.70;2.00;;;;;;;24.83;65.16;96964.22;4412164;32;20094;-77
2023/08/03 01:01:47;;;;;;;4.62;2.10;;;;;;;24.95;65.13;96962.75;4425687;32;20123;-77
2023/08/03 01:04:14;;;;;;;7.70;2.83;;;;;;;24.65;66.76;96965.38;4425922;32;20155;-77
2023/08/03 01:06:41;;;;;;;4.20;2.10;;;;;;;25.18;64.52;96957.41;4425889;32;20460;-77
2023/08/03 01:09:08;;;;;;;8.30;2.35;;;;;;;25.21;64.06;96962.34;4425629;32;20081;-77
2023/08/03 01:11:35;;;;;;;6.37;2.03;;;;;;;25.16;64.27;96962.88;4426002;32;20440;-77
2023/08/03 01:14:02;;;;;;;4.20;1.90;;;;;;;25.38;63.72;96959.28;4425931;32;20169;-77
2023/08/03 01:16:29;;;;;;;6.05;2.37;;;;;;;25.38;62.92;96958.47;4411816;32;20558;-77
2023/08/03 01:18:57;;;;;;;5.57;2.28;;;;;;;24.83;65.04;96958.94;4425849;32;20098;-77
2023/08/03 01:21:25;;;;;;;6.10;2.08;;;;;;;24.73;65.86;96954.75;4425800;32;20090;-77
2023/08/03 01:23:52;;;;;;;6.45;2.25;;;;;;;25.06;64.94;96954.41;4411921;32;20181;-77
2023/08/03 01:26:19;;;;;;;6.18;2.47;;;;;;;25.23;64.67;96955.88;4412079;32;20106;-77
2023/08/03 01:28:46;;;;;;;7.15;2.45;;;;;;;25.09;64.64;96960.16;4425666;32;20090;-77
2023/08/03 01:31:18;;;;;;;6.43;2.22;;;;;;;25.49;63.39;96952.72;4425412;32;20115;-77
2023/08/03 01:33:45;;;;;;;6.20;2.60;;;;;;;24.48;67.43;96948.91;4426016;32;20089;-77
2023/08/03 01:36:11;;;;;;;6.57;2.33;;;;;;;24.98;66.36;96951.84;4425623;32;20168;-77
2023/08/03 01:38:38;;;;;;;6.05;2.72;;;;;;;24.69;67.54;96940.28;4425424;32;20141;-77
2023/08/03 01:41:05;;;;;;;7.45;2.70;;;;;;;24.17;70.09;96929.72;4425764;32;20090;-77
2023/08/03 01:43:32;;;;;;;4.93;2.40;;;;;;;24.02;71.49;96939.38;4425853;32;20142;-77
2023/08/03 01:45:59;;;;;;;4.87;2.25;;;;;;;23.70;72.94;96933.34;4425368;32;20532;-77
2023/08/03 01:48:26;;;;;;;6.32;2.60;;;;;;;23.85;72.30;96930.78;4425760;32;20089;-77
2023/08/03 01:50:53;;;;;;;6.78;2.60;;;;;;;23.53;73.94;96939.69;4425351;32;20089;-77
2023/08/03 01:53:20;;;;;;;7.20;2.58;;;;;;;23.68;73.22;96930.06;4425582;32;20565;-77
2023/08/03 01:55:47;;;;;;;7.68;3.03;;;;;;;23.83;71.77;96933.59;4411875;32;20128;-77
2023/08/03 01:58:14;;;;;;;7.55;2.60;;;;;;;23.12;75.55;96921.47;4425400;32;20082;-77
2023/08/03 02:00:41;;;;;;;5.20;2.60;;;;;;;22.63;79.32;96915.50;4411739;32;20565;-77
2023/08/03 02:03:08;;;;;;;10.20;2.90;;;;;;;23.42;74.38;96924.28;4424707;32;20117;-77
2023/08/03 02:05:35;;;;;;;5.78;2.65;;;;;;;24.01;71.60;96921.91;4425243;32;20098;-77
2023/08/03 02:08:02;;;;;;;7.50;2.75;;;;;;;23.47;73.92;96921.94;4425736;32;20093;-77
2023/08/03 02:10:29;;;;;;;6.90;3.03;;;;;;;22.91;77.31;96935.19;4425564;32;20139;-77
2023/08/03 02:12:56;;;;;;;5.68;2.70;;;;;;;23.62;73.58;96934.22;4425211;32;20098;-77
2023/08/03 02:15:23;;;;;;;7.55;3.10;;;;;;;24.10;71.23;96936.69;4425527;32;20098;-77
2023/08/03 02:17:50;;;;;;;6.35;3.10;;;;;;;23.89;72.43;96939.97;4411715;32;20419;-77
2023/08/03 02:20:18;;;;;;;7.45;3.17;;;;;;;24.28;70.56;96937.19;4425186;32;20128;-77
2023/08/03 02:22:44;;;;;;;7.78;3.10;;;;;;;23.94;70.85;96943.72;4425407;32;20167;-77
2023/08/03 02:25:11;;;;;;;7.78;3.30;;;;;;;24.18;71.13;96931.34;4425470;32;20627;-77
2023/08/03 02:27:38;;;;;;;7.05;3.30;;;;;;;24.03;72.54;96938.38;4425209;32;20099;-77
2023/08/03 02:30:06;;;;;;;8.32;3.80;;;;;;;24.80;69.32;96939.03;4425207;32;20100;-77
2023/08/03 02:32:33;;;;;;;8.32;3.45;;;;;;;24.53;70.69;96935.97;4425461;32;20109;-77
2023/08/03 02:35:00;;;;;;;9.75;3.70;;;;;;;23.66;75.74;96940.78;4424958;32;20116;-77
2023/08/03 02:37:27;;;;;;;8.20;3.33;;;;;;;23.95;74.75;96932.19;4425537;32;20157;-77
2023/08/03 02:39:54;;;;;;;8.65;3.50;;;;;;;24.14;74.11;96930.88;4425263;32;20101;-77
2023/08/03 02:42:21;;;;;;;8.25;3.60;;;;;;;24.09;74.09;96940.31;4425175;32;20151;-77
2023/08/03 02:44:48;;;;;;;7.15;3.67;;;;;;;24.32;72.69;96927.94;4425454;32;20097;-77
2023/08/03 02:47:14;;;;;;;9.90;3.87;;;;;;;24.32;72.27;96932.41;4424867;32;20098;-77
2023/08/03 02:49:41;;;;;;;9.52;3.83;;;;;;;24.60;71.20;96933.44;4425273;32;20491;-77
2023/08/03 02:52:08;;;;;;;9.30;3.72;;;;;;;24.63;70.16;96946.28;4425267;32;20132;-77
2023/08/03 02:54:35;;;;;;;8.07;3.70;;;;;;;24.93;68.80;96948.94;4425015;32;20471;-77
2023/08/03 02:57:02;;;;;;;7.68;3.22;;;;;;;25.61;65.33;96955.69;4425104;32;20157;-77
2023/08/03 02:59:29;;;;;;;10.27;3.85;;;;;;;25.13;67.49;96962.44;4425265;32;20151;-77
2023/08/03 03:01:56;;;;;;;8.02;3.60;;;;;;;24.86;68.22;96959.37;4424786;32;20432;-77
2023/08/03 03:04:23;;;;;;;9.98;3.53;;;;;;;25.15;67.82;96957.78;4425164;32;20440;-77
2023/08/03 03:06:50;;;;;;;6.40;3.25;;;;;;;25.19;66.90;96961.69;4424938;32;20127;-77
2023/08/03 03:09:17;;;;;;;9.07;3.15;;;;;;;25.51;66.02;96955.97;4424701;32;20169;-78
2023/08/03 03:11:44;;;;;;;9.45;3.45;;;;;;;25.87;63.92;96965.78;4425127;32;20093;-77
2023/08/03 03:14:11;;;;;;;7.00;3.50;;;;;;;24.99;67.35;96962.22;4424703;32;20148;-77
2023/08/03 03:16:38;;;;;;;7.37;3.40;;;;;;;25.00;67.83;96966.50;4424569;32;20103;-77
2023/08/03 03:19:05;;;;;;;8.45;3.47;;;;;;;24.51;70.47;96974.91;4424951;32;20128;-77
2023/08/03 03:21:32;;;;;;;8.80;3.47;;;;;;;25.11;67.73;96973.19;4411087;32;20444;-77
2023/08/03 03:23:59;;;;;;;9.98;3.92;;;;;;;24.52;70.13;96976.53;4424624;32;20090;-77
2023/08/03 03:26:25;;;;;;;8.32;3.67;;;;;;;24.52;70.32;96984.44;4424774;32;20123;-77
2023/08/03 03:28:52;;;;;;;8.90;3.80;;;;;;;24.41;71.24;96990.16;4424820;32;20086;-77
2023/08/03 03:31:19;;;;;;;9.70;3.65;;;;;;;24.43;70.65;96989.97;4424478;32;20112;-78
2023/08/03 03:33:46;;;;;;;8.55;3.58;;;;;;;24.29;71.69;96988.91;4424806;32;20162;-77
2023/08/03 03:36:13;;;;;;;12.32;3.95;;;;;;;24.67;70.60;96986.28;4424240;32;20589;-77
2023/08/03 03:38:40;;;;;;;7.65;3.60;;;;;;;24.48;71.15;96982.34;4424741;32;20458;-77
2023/08/03 03:41:07;;;;;;;11.07;3.58;;;;;;;24.36;72.52;96991.69;4424673;32;20112;-77
2023/08/03 03:43:34;;;;;;;7.05;3.45;;;;;;;24.72;70.44;96999.75;4424374;32;20119;-77
2023/08/03 03:46:02;;;;;;;8.45;3.83;;;;;;;24.36;71.96;96999.59;4424502;32;20161;-77
2023/08/03 03:48:29;;;;;;;8.73;3.67;;;;;;;24.57;71.27;96991.84;4424672;32;20149;-77
2023/08/03 03:50:56;;;;;;;10.55;3.95;;;;;;;24.76;70.71;96998.41;4424204;32;20093;-77
2023/08/03 03:53:23;;;;;;;10.35;3.87;;;;;;;24.42;72.13;97006.78;4424492;32;20094;-77
2023/08/03 03:55:49;;;;;;;8.23;3.65;;;;;;;24.60;71.47;97003.84;4424284;32;20101;-77
2023/08/03 03:58:16;;;;;;;8.32;3.50;;;;;;;24.82;69.83;97005.59;4424123;32;20070;-77
2023/08/03 04:00:43;;;;;;;7.97;3.50;;;;;;;24.96;69.24;97015.34;4424351;32;20116;-77
2023/08/03 04:03:10;;;;;;;8.65;3.50;;;;;;;24.55;71.70;97006.19;4424322;32;20554;-77
2023/08/03 04:05:38;;;;;;;9.80;3.42;;;;;;;24.95;69.42;97004.97;4423887;32;20102;-77
2023/08/03 04:08:05;;;;;;;8.98;3.55;;;;;;;25.34;67.13;97010.84;4424390;32;20431;-77
2023/08/03 04:10:33;;;;;;;7.82;3.80;;;;;;;24.87;69.14;97002.41;4424169;32;20117;-77
2023/08/03 04:13:00;;;;;;;8.10;3.40;;;;;;;25.46;66.68;97011.19;4410343;32;20145;-77
2023/08/03 04:15:27;;;;;;;7.50;3.28;;;;;;;25.64;65.86;97011.63;4410374;32;20142;-77
2023/08/03 04:17:54;;;;;;;8.82;3.50;;;;;;;26.24;63.70;97012.28;4424271;32;20129;-77
2023/08/03 04:20:21;;;;;;;7.57;3.30;;;;;;;26.75;61.33;97012.13;4423680;32;20111;-77
2023/08/03 04:22:48;;;;;;;8.05;3.20;;;;;;;27.12;59.63;97015.47;4424085;32;20089;-77
2023/08/03 04:25:15;;;;;;;8.18;3.30;;;;;;;27.20;59.00;97015.31;4423779;32;20153;-77
2023/08/03 04:27:42;;;;;;;9.38;3.12;;;;;;;26.96;59.86;97022.66;4426316;32;20078;-77
2023/08/03 04:30:13;;;;;;;9.23;3.28;;;;;;;27.26;58.57;97017.19;4425951;32;20153;-77
2023/08/03 04:32:41;;;;;;;8.55;3.83;;;;;;;27.18;58.57;97014.69;4426030;32;20141;-77
2023/08/03 04:35:09;;;;;;;9.00;3.00;;;;;;;27.31;58.22;97018.22;4426219;32;20169;-77
2023/08/03 04:37:36;;;;;;;8.00;3.22;;;;;;;27.87;56.75;97028.69;4412491;32;20090;-77
2023/08/03 04:40:04;;;;;;;7.65;3.35;;;;;;;28.07;56.13;97030.56;4425811;32;20106;-77
2023/08/03 04:42:31;;;;;;;8.40;3.22;;;;;;;27.61;57.25;97029.37;4426206;32;20447;-77
2023/08/03 04:44:57;;;;;;;7.87;3.00;;;;;;;26.87;60.07;97030.94;4426112;32;20546;-77
2023/08/03 04:47:24;;;;;;;7.30;3.20;;;;;;;26.73;61.42;97038.78;4425724;32;20445;-77
2023/08/03 04:49:51;;;;;;;7.68;3.12;;;;;;;27.09;60.51;97040.50;4426079;32;20093;-77
2023/08/03 04:52:18;;;;;;;7.15;3.00;;;;;;;26.74;61.74;97053.66;4426120;32;20219;-77
2023/08/03 04:54:46;;;;;;;9.93;3.25;;;;;;;27.14;60.90;97059.28;4425772;32;20141;-77
2023/08/03 04:57:13;;;;;;;7.47;3.45;;;;;;;27.01;61.03;97070.56;4425980;32;20425;-77
2023/08/03 04:59:40;;;;;;;8.32;3.30;;;;;;;26.61;63.39;97074.72;4426125;32;20086;-77
2023/08/03 05:02:07;;;;;;;6.75;3.03;;;;;;;26.68;62.95;97080.03;4425651;32;20094;-77
2023/08/03 05:04:34;;;;;;;8.48;3.20;;;;;;;26.68;63.65;97086.16;4425980;32;20086;-77
2023/08/03 05:07:01;;;;;;;6.32;2.80;;;;;;;26.58;63.91;97090.94;4425797;32;20510;-77
2023/08/03 05:09:28;;;;;;;9.00;3.30;;;;;;;26.64;63.48;97092.84;4425562;32;20167;-77
2023/08/03 05:11:55;;;;;;;8.25;3.20;;;;;;;27.19;61.46;97101.06;4412181;32;20106;-77
2023/08/03 05:14:22;;;;;;;8.25;3.33;;;;;;;27.19;61.66;97109.00;4425601;32;20138;-77
2023/08/03 05:16:48;;;;;;;7.20;3.00;;;;;;;27.43;60.23;97103.25;4425814;32;20436;-77
2023/08/03 05:19:15;;;;;;;9.77;3.33;;;;;;;27.49;60.32;97101.66;4425876;32;20098;-77
2023/08/03 05:21:42;;;;;;;10.50;3.72;;;;;;;27.99;58.46;97118.25;4425632;32;20103;-77
2023/08/03 05:24:10;;;;;;;9.38;4.07;;;;;;;27.54;59.40;97115.97;4425855;32;20086;-77
2023/08/03 05:26:37;;;;;;;10.45;3.50;;;;;;;27.70;59.14;97127.28;4425753;32;20111;-77
2023/08/03 05:29:03;;;;;;;8.80;3.70;;;;;;;27.66;58.87;97135.63;4425145;32;20518;-77
2023/08/03 05:31:30;;;;;;;9.02;3.53;;;;;;;28.03;56.75;97136.22;4425944;32;20573;-77
2023/08/03 05:33:57;;;;;;;8.40;3.50;;;;;;;27.74;57.48;97125.88;4425816;32;20452;-77
2023/08/03 05:36:25;;;;;;;10.32;3.47;;;;;;;28.07;55.93;97126.84;4425241;32;20085;-77
2023/08/03 05:38:54;;;;;;;7.20;3.10;;;;;;;27.98;56.02;97125.41;4425799;32;20110;-77
2023/08/03 05:41:25;;;;;;;7.95;3.17;;;;;;;27.03;57.77;97120.69;4425870;32;20109;-77
2023/08/03 05:43:55;;;;;;;8.32;3.03;;;;;;;26.85;59.57;97121.13;4422471;32;20116;-77
2023/08/03 05:46:27;;;;;;;6.35;2.87;;;;;;;27.40;57.94;97140.72;4424268;32;20104;-77
2023/08/03 05:48:54;;;;;;;9.27;3.40;;;;;;;27.09;57.71;97131.31;4411187;32;20093;-77
2023/08/03 05:51:27;;;;;;;8.30;3.10;;;;;;;26.93;59.01;97136.06;4424558;32;20138;-76
2023/08/03 05:53:55;;;;;;;7.00;2.70;;;;;;;26.99;58.67;97129.97;4424376;32;20077;-77
2023/08/03 05:56:23;;;;;;;6.47;2.70;;;;;;;27.45;57.49;97142.81;4424653;32;20141;-77
2023/08/03 05:58:52;;;;;;;5.97;2.70;;;;;;;27.37;56.98;97141.13;4411030;32;20733;-77
2023/08/03 06:01:20;;;;;;;9.02;3.00;;;;;;;26.79;58.63;97137.75;4425083;32;20181;-77
2023/08/03 06:03:50;;;;;;;6.60;2.55;;;;;;;27.16;58.06;97141.16;4424149;32;20411;-77
2023/08/03 06:06:18;;;;;;;5.60;2.17;;;;;;;27.36;56.42;97145.59;4424890;32;20104;-77
2023/08/03 06:08:50;;;;;;;6.28;2.28;;;;;;;27.74;55.36;97139.12;4424837;32;20093;-78
2023/08/03 06:11:20;;;;;;;5.03;2.20;;;;;;;27.63;55.45;97149.22;4424712;32;20153;-77
2023/08/03 06:13:53;;;;;;;5.43;2.12;;;;;;;27.29;55.82;97147.38;4424351;32;20419;-77
2023/08/03 06:16:21;;;;;;;4.60;2.03;;;;;;;27.70;56.04;97137.88;4425420;32;20086;-76
2023/08/03 06:18:52;;;;;;;5.45;2.35;;;;;;;27.29;54.95;97142.06;4414831;32;20121;-77
2023/08/03 06:21:20;;;;;;;5.15;2.00;;;;;;;27.29;55.59;97151.84;4426721;32;20200;-77
2023/08/03 06:23:49;;;;;;;6.82;2.17;;;;;;;28.19;53.68;97153.62;4424223;32;20100;-77
2023/08/03 06:26:17;;;;;;;5.50;2.17;;;;;;;28.35;52.02;97152.47;4411024;32;20097;-77
2023/08/03 06:28:45;;;;;;;4.43;2.00;;;;;;;28.30;51.28;97153.09;4424776;32;20511;-76
2023/08/03 06:31:18;;;;;;;5.78;1.98;;;;;;;28.14;52.44;97161.34;4424412;32;20128;-75
2023/08/03 06:33:46;;;;;;;5.87;1.80;;;;;;;28.58;51.77;97152.13;4431833;32;20153;-79
2023/08/03 06:36:27;;;;;;;3.67;1.75;;;;;;;28.96;50.28;97161.22;4435224;32;20687;-78
2023/08/03 06:38:57;;;;;;;4.47;1.90;;;;;;;29.00;49.45;97162.44;4429648;32;145803;-78
2023/08/03 06:41:27;;;;;;;3.28;1.70;;;;;;;28.96;48.81;97163.88;4421655;32;20070;-78
2023/08/03 06:43:55;;;;;;;3.42;1.80;;;;;;;28.85;49.29;97168.94;4431358;32;20077;-82
2023/08/03 06:46:46;;;;;;;3.33;1.62;;;;;;;29.81;47.51;97177.34;4422848;32;20150;-82
2023/08/03 06:49:13;;;;;;;4.10;1.87;;;;;;;29.64;46.30;97184.91;4437373;32;20106;-81
2023/08/03 06:51:40;;;;;;;3.87;1.70;;;;;;;29.82;46.42;97202.91;4437658;32;20082;-82
2023/08/03 06:54:07;;;;;;;5.30;2.03;;;;;;;29.15;45.63;97193.31;4439044;32;20054;-82
2023/08/03 06:56:36;;;;;;;4.12;1.77;;;;;;;29.45;45.92;97199.81;4434678;32;20129;-83
2023/08/03 06:59:03;;;;;;;4.22;1.80;;;;;;;28.87;46.92;97209.38;4432311;32;20069;-82
2023/08/03 07:01:30;;;;;;;4.47;1.87;;;;;;;27.91;49.14;97204.06;4433789;32;20165;-82
2023/08/03 07:03:57;;;;;;;3.97;1.87;;;;;;;28.21;48.75;97210.75;4432095;32;20108;-82
2023/08/03 07:06:29;;;;;;;4.40;1.83;;;;;;;27.52;49.88;97220.47;4431082;32;20159;-82
2023/08/03 07:08:56;;;;;;;5.35;1.80;;;;;;;28.77;47.84;97217.72;4431780;32;20117;-82
2023/08/03 07:11:23;;;;;;;4.53;2.10;;;;;;;28.31;49.73;97220.22;4418417;32;20118;-81
2023/08/03 07:13:50;;;;;;;5.65;2.20;;;;;;;28.44;48.83;97207.00;4432743;32;20122;-82
2023/08/03 07:16:16;;;;;;;5.00;2.25;;;;;;;28.07;50.71;97208.22;4435919;32;20074;-81
2023/08/03 07:18:43;;;;;;;5.22;2.15;;;;;;;28.88;48.53;97217.16;4437755;32;20077;-84
2023/08/03 07:21:10;;;;;;;5.57;2.25;;;;;;;29.12;47.72;97205.13;4424785;32;20086;-86
2023/08/03 07:23:37;;;;;;;5.28;2.00;;;;;;;29.25;47.33;97197.19;4435231;32;20099;-81
2023/08/03 07:26:15;;;;;;;4.25;2.00;;;;;;;29.67;46.14;97214.59;4435253;32;20062;-83
2023/08/03 07:28:42;;;;;;;7.07;2.40;;;;;;;29.01;48.05;97203.09;4436472;32;20070;-82
2023/08/03 07:31:14;;;;;;;5.35;2.53;;;;;;;29.39;46.65;97205.97;4434020;32;20128;-83
2023/08/03 07:33:44;;;;;;;6.62;2.37;;;;;;;30.04;45.84;97212.25;4422427;32;20827;-83
2023/08/03 07:36:19;;;;;;;6.47;2.20;;;;;;;30.52;44.93;97225.22;4437153;32;20112;-82
2023/08/03 07:38:46;;;;;;;6.55;2.50;;;;;;;31.48;42.44;97225.09;4436795;32;20110;-83
2023/08/03 07:41:13;;;;;;;5.20;2.33;;;;;;;30.92;41.89;97225.03;4437191;32;20097;-83
2023/08/03 07:43:40;;;;;;;5.53;2.20;;;;;;;30.96;42.70;97227.06;4437116;32;20066;-83
2023/08/03 07:46:08;;;;;;;5.28;2.30;;;;;;;31.19;40.53;97236.34;4436433;32;20053;-84
2023/08/03 07:48:35;;;;;;;4.80;1.87;;;;;;;31.11;40.86;97229.41;4431775;32;20104;-83
2023/08/03 07:51:15;;;;;;;5.55;1.90;;;;;;;31.37;39.06;97237.25;4430281;32;20161;-84
2023/08/03 07:53:46;;;;;;;5.03;1.98;;;;;;;30.73;40.60;97246.25;4433604;32;20050;-84
2023/08/03 07:56:16;;;;;;;4.20;1.73;;;;;;;31.34;38.90;97250.19;4436809;32;20062;-84
2023/08/03 07:58:44;;;;;;;4.50;1.80;;;;;;;30.87;38.55;97249.66;4431522;32;20153;-84
2023/08/03 08:01:11;;;;;;;4.75;2.35;;;;;;;30.78;38.87;97257.06;4421457;32;20766;-83
2023/08/03 08:03:39;;;;;;;5.35;2.03;;;;;;;29.86;40.87;97260.75;4438305;32;20054;-83
2023/08/03 08:06:08;;;;;;;4.53;1.75;;;;;;;30.13;40.72;97264.25;4426688;32;20082;-82
2023/08/03 08:08:38;;;;;;;6.45;1.98;;;;;;;29.06;41.28;97269.72;4424875;32;20144;-82
2023/08/03 08:11:05;;;;;;;5.70;2.08;;;;;;;29.41;42.55;97280.16;4411541;32;20105;-82
2023/08/03 08:13:38;;;;;;;4.47;1.90;;;;;;;30.01;39.53;97273.84;4425754;32;20139;-82
2023/08/03 08:16:07;;;;;;;4.00;1.80;;;;;;;30.48;39.48;97271.91;4425749;32;20588;-82
2023/08/03 08:18:35;;;;;;;4.37;2.00;;;;;;;30.14;39.11;97287.16;4424647;32;20148;-82
2023/08/03 08:21:07;;;;;;;6.37;2.00;;;;;;;30.24;38.20;97289.38;4425598;32;20144;-82
2023/08/03 08:23:34;;;;;;;4.18;1.55;;;;;;;29.93;40.52;97288.19;4411758;32;20094;-82
2023/08/03 08:26:03;;;;;;;5.45;1.67;;;;;;;29.37;39.21;97282.44;4425035;32;20152;-81
2023/08/03 08:28:30;;;;;;;4.15;1.80;;;;;;;29.12;37.72;97278.69;4411679;32;20105;-82
2023/08/03 08:31:06;;;;;;;5.10;1.62;;;;;;;29.91;37.15;97286.75;4425183;32;20117;-82
2023/08/03 08:33:33;;;;;;;5.20;2.00;;;;;;;28.64;39.09;97286.69;4425566;32;20086;-82
2023/08/03 08:36:00;;;;;;;5.35;1.80;;;;;;;28.94;39.98;97298.69;4425418;32;20133;-83
2023/08/03 08:38:27;;;;;;;3.95;1.40;;;;;;;29.55;40.39;97295.13;4425411;32;20093;-84
2023/08/03 08:40:54;;;;;;;4.40;1.77;;;;;;;29.26;39.02;97302.44;4424825;32;20117;-83
2023/08/03 08:43:22;;;;;;;4.22;1.70;;;;;;;30.46;38.15;97306.72;4425310;32;20414;-82
2023/08/03 08:45:49;;;;;;;6.97;1.98;;;;;;;30.54;39.22;97305.69;4425107;32;20103;-83
2023/08/03 08:48:16;;;;;;;3.78;1.70;;;;;;;30.35;38.49;97296.72;4425472;32;20120;-82
2023/08/03 08:50:47;;;;;;;5.03;1.85;;;;;;;30.65;36.75;97291.75;4424545;32;20115;-83
2023/08/03 08:53:17;;;;;;;3.25;1.60;;;;;;;30.78;36.37;97299.66;4424751;32;20093;-84
2023/08/03 08:55:46;;;;;;;4.57;1.58;;;;;;;30.85;35.84;97301.50;4425310;32;20081;-83
2023/08/03 08:58:16;;;;;;;3.47;1.60;;;;;;;30.30;36.67;97307.16;4424680;32;20102;-82
2023/08/03 09:00:46;;;;;;;6.22;1.87;;;;;;;29.67;36.64;97307.62;4424157;32;20109;-82
2023/08/03 09:03:14;;;;;;;4.97;1.87;;;;;;;29.82;36.59;97310.06;4425218;32;20100;-82
2023/08/03 09:05:41;;;;;;;5.82;1.60;;;;;;;30.19;35.59;97316.59;4425329;32;20151;-81
2023/08/03 09:08:16;;;;;;;5.82;1.73;;;;;;;30.86;34.73;97321.78;4424966;32;20112;-81
2023/08/03 09:10:47;;;;;;;4.47;1.62;;;;;;;31.07;33.97;97330.28;4424671;32;20097;-85
2023/08/03 09:13:31;;;;;;;4.03;1.55;;;;;;;30.96;34.28;97332.78;4424548;32;20149;-83
2023/08/03 09:15:59;;;;;;;6.03;1.90;;;;;;;29.15;35.52;97326.13;4425685;32;20093;-84
2023/08/03 09:18:27;;;;;;;5.00;1.65;;;;;;;29.68;35.49;97327.06;4427762;32;20108;-84
2023/08/03 09:21:19;;;;;;;5.72;1.87;;;;;;;30.09;34.73;97334.00;4431627;32;20109;-83
2023/08/03 09:23:49;;;;;;;4.03;1.70;;;;;;;30.73;34.02;97342.09;4431701;32;20097;-84
2023/08/03 09:26:23;;;;;;;4.60;1.73;;;;;;;30.91;34.02;97337.94;4430213;32;20086;-84
2023/08/03 09:28:53;;;;;;;4.50;1.60;;;;;;;30.38;34.56;97338.06;4413615;32;20102;-84
2023/08/03 09:31:24;;;;;;;4.37;1.60;;;;;;;30.44;34.89;97337.25;4426574;32;20088;-82
2023/08/03 09:33:59;;;;;;;5.80;1.80;;;;;;;30.32;34.81;97341.56;4427692;32;20408;-84
2023/08/03 09:36:28;;;;;;;4.72;1.90;;;;;;;30.05;35.35;97346.06;4427021;32;20125;-83
2023/08/03 09:39:14;;;;;;;4.40;1.73;;;;;;;29.99;35.24;97346.88;4427217;32;20125;-84
2023/08/03 09:41:44;;;;;;;4.32;1.65;;;;;;;30.29;35.51;97356.09;4426856;32;20085;-83
2023/08/03 09:44:16;;;;;;;3.78;1.70;;;;;;;30.19;34.42;97361.81;4424987;32;20229;-84
2023/08/03 09:46:52;;;;;;;5.53;2.05;;;;;;;29.16;36.63;97357.78;4424832;32;20498;-83
2023/08/03 09:49:20;;;;;;;8.45;1.90;;;;;;;28.82;38.14;97356.00;4424475;32;20163;-84
2023/08/03 09:51:52;;;;;;;5.45;1.85;;;;;;;28.74;37.84;97359.62;4428031;32;20511;-84
2023/08/03 09:54:29;;;;;;;4.43;1.80;;;;;;;29.78;36.90;97371.84;4424353;32;20151;-84
2023/08/03 09:56:59;;;;;;;3.50;1.70;;;;;;;29.13;37.01;97367.97;4419609;32;20110;-84
2023/08/03 09:59:32;;;;;;;6.05;2.30;;;;;;;30.18;36.66;97376.16;4411293;32;20885;-85
2023/08/03 10:02:02;;;;;;;4.60;1.90;;;;;;;29.84;35.25;97379.00;4412584;32;20106;-83
2023/08/03 10:04:40;;;;;;;5.00;1.90;;;;;;;29.42;35.30;97375.62;4425073;32;20086;-84
2023/08/03 10:07:14;;;;;;;6.28;1.95;;;;;;;27.60;38.95;97377.50;4414275;32;20088;-84
2023/08/03 10:09:43;;;;;;;4.50;2.15;;;;;;;28.18;40.54;97378.25;4426302;32;20110;-84
2023/08/03 10:12:20;;;;;;;4.37;1.70;;;;;;;27.49;41.48;97388.59;4413021;32;20475;-84
2023/08/03 10:14:51;;;;;;;6.32;1.85;;;;;;;28.39;38.43;97392.47;4411147;32;20094;-84
2023/08/03 10:17:18;;;;;;;5.22;1.85;;;;;;;28.86;38.01;97410.34;4413865;32;20054;-83
2023/08/03 10:19:46;;;;;;;4.40;2.00;;;;;;;29.12;36.70;97408.84;4412338;32;20102;-84
2023/08/03 10:22:13;;;;;;;5.37;2.10;;;;;;;28.94;36.71;97404.91;4425801;32;20158;-84
2023/08/03 10:24:40;;;;;;;5.37;2.20;;;;;;;28.48;37.77;97405.41;4424538;32;20086;-84
2023/08/03 10:27:20;;;;;;;5.07;2.00;;;;;;;28.23;38.86;97418.25;4425464;32;20143;-83
2023/08/03 10:29:56;;;;;;;5.12;1.80;;;;;;;28.77;37.22;97424.78;4425541;32;20149;-84
2023/08/03 10:32:25;;;;;;;4.95;1.92;;;;;;;28.09;38.97;97416.53;4426262;32;20112;-84
2023/08/03 10:34:56;;;;;;;5.07;1.85;;;;;;;28.30;39.73;97410.41;4427125;32;20100;-83
2023/08/03 10:37:23;;;;;;;4.22;2.20;;;;;;;29.01;40.09;97413.69;4427355;32;20162;-82
2023/08/03 10:39:53;;;;;;;4.20;1.80;;;;;;;28.37;42.04;97405.94;4427220;32;20117;-83
2023/08/03 10:42:24;;;;;;;6.32;2.28;;;;;;;28.85;41.14;97413.19;4428807;32;20486;-83
2023/08/03 10:44:52;;;;;;;4.32;1.90;;;;;;;29.68;39.48;97414.78;4411844;32;20090;-83
2023/08/03 10:47:23;;;;;;;5.47;2.05;;;;;;;29.67;38.48;97413.16;4411985;32;20093;-83
2023/08/03 10:49:52;;;;;;;3.97;1.75;;;;;;;29.54;39.56;97419.22;4425219;32;20102;-82
2023/08/03 10:52:22;;;;;;;4.97;2.00;;;;;;;28.67;39.46;97424.31;4424661;32;20097;-82
2023/08/03 10:54:49;;;;;;;3.78;1.83;;;;;;;28.64;39.70;97419.41;4424359;32;20100;-82
2023/08/03 10:57:24;;;;;;;5.97;1.80;;;;;;;28.24;39.08;97417.25;4423887;32;20053;-81
2023/08/03 10:59:59;;;;;;;4.93;1.92;;;;;;;28.58;39.60;97414.84;4426489;32;20070;-82
2023/08/03 11:02:33;;;;;;;4.85;2.00;;;;;;;28.09;40.96;97415.72;4426863;32;20090;-83
2023/08/03 11:05:03;;;;;;;3.90;1.65;;;;;;;28.06;40.97;97408.13;4424961;32;20086;-82
2023/08/03 11:07:41;;;;;;;4.03;1.80;;;;;;;27.83;41.77;97416.28;4426170;32;20113;-82
2023/08/03 11:10:10;;;;;;;5.65;1.92;;;;;;;28.47;41.46;97427.66;4425381;32;20113;-83
2023/08/03 11:12:40;;;;;;;5.53;2.20;;;;;;;28.60;41.55;97428.75;4424852;32;20098;-82
2023/08/03 11:15:07;;;;;;;5.45;1.62;;;;;;;28.57;40.89;97432.63;4424075;32;20112;-81
2023/08/03 11:17:36;;;;;;;4.40;1.75;;;;;;;28.83;41.02;97426.66;4424556;32;20107;-82
2023/08/03 11:20:07;;;;;;;4.70;1.87;;;;;;;28.28;42.51;97430.97;4423767;32;20116;-83
2023/08/03 11:22:34;;;;;;;5.82;2.05;;;;;;;27.80;42.92;97425.44;4410847;32;20145;-81
2023/08/03 11:25:04;;;;;;;5.72;2.03;;;;;;;28.25;42.15;97418.06;4426053;32;20098;-84
2023/08/03 11:27:31;;;;;;;4.70;2.00;;;;;;;28.70;42.27;97418.59;4424952;32;20077;-82
2023/08/03 11:29:59;;;;;;;6.87;2.10;;;;;;;29.24;42.47;97424.03;4425348;32;20102;-82
2023/08/03 11:32:30;;;;;;;4.18;1.80;;;;;;;29.19;43.89;97418.47;4424072;32;20108;-81
2023/08/03 11:35:06;;;;;;;5.12;2.15;;;;;;;29.14;45.66;97412.09;4425675;32;20089;-80
2023/08/03 11:37:34;;;;;;;4.25;2.10;;;;;;;29.80;44.35;97397.22;4428786;32;20085;-77
2023/08/03 11:40:06;;;;;;;5.40;2.15;;;;;;;29.97;44.62;97400.28;4428923;32;20451;-78